createdAt,value
2018-09-17T00:01:08.810Z,6.40
2018-09-17T00:03:37.209Z,6.50
2018-09-17T00:06:06.741Z,5.87
2018-09-17T00:08:35.165Z,6.13
2018-09-17T00:11:03.546Z,7.00
2018-09-17T00:13:32.267Z,6.17
2018-09-17T00:16:00.555Z,7.00
2018-09-17T00:18:28.861Z,6.70
2018-09-17T00:20:57.176Z,6.43
2018-09-17T00:23:25.484Z,6.20
2018-09-17T00:25:53.783Z,7.10
2018-09-17T00:28:22.102Z,6.80
2018-09-17T00:30:50.529Z,6.40
2018-09-17T00:33:18.916Z,6.33
2018-09-17T00:35:47.200Z,6.60
2018-09-17T00:38:15.509Z,6.10
2018-09-17T00:40:43.809Z,6.80
2018-09-17T00:43:12.112Z,6.47
2018-09-17T00:45:40.416Z,6.63
2018-09-17T00:48:08.754Z,6.13
2018-09-17T00:50:37.102Z,7.17
2018-09-17T00:53:05.615Z,6.47
2018-09-17T00:55:33.905Z,6.50
2018-09-17T00:58:02.266Z,6.40
2018-09-17T01:00:30.502Z,7.30
2018-09-17T01:02:58.859Z,6.30
2018-09-17T01:05:27.172Z,7.23
2018-09-17T01:07:55.481Z,7.03
2018-09-17T01:10:23.797Z,7.47
2018-09-17T01:12:52.186Z,6.97
2018-09-17T01:15:20.528Z,6.97
2018-09-17T01:17:48.857Z,6.90
2018-09-17T01:20:17.381Z,6.33
2018-09-17T01:22:45.684Z,7.20
2018-09-17T01:25:14.018Z,7.60
2018-09-17T01:27:42.327Z,7.13
2018-09-17T01:30:10.866Z,7.07
2018-09-17T01:32:39.161Z,6.50
2018-09-17T01:35:07.595Z,6.73
2018-09-17T01:37:35.869Z,7.53
2018-09-17T01:40:04.239Z,8.00
2018-09-17T01:42:32.549Z,6.90
2018-09-17T01:45:00.938Z,6.97
2018-09-17T01:47:29.242Z,7.00
2018-09-17T01:49:57.643Z,7.50
2018-09-17T01:52:25.953Z,6.40
2018-09-17T01:54:54.323Z,7.20
2018-09-17T01:57:22.606Z,7.53
2018-09-17T01:59:50.903Z,8.00
2018-09-17T02:02:19.207Z,7.13
2018-09-17T02:04:47.586Z,7.10
2018-09-17T02:07:15.889Z,6.50
2018-09-17T02:09:45.192Z,7.07
2018-09-17T02:12:14.006Z,7.17
2018-09-17T02:14:42.901Z,7.17
2018-09-17T02:17:11.197Z,7.47
2018-09-17T02:19:39.670Z,8.00
2018-09-17T02:22:08.965Z,7.60
2018-09-17T02:24:37.325Z,8.27
2018-09-17T02:27:05.865Z,7.00
2018-09-17T02:29:34.188Z,7.23
2018-09-17T02:32:02.543Z,7.43
2018-09-17T02:34:30.871Z,7.50
2018-09-17T02:36:59.172Z,7.20
2018-09-17T02:39:27.506Z,6.93
2018-09-17T02:41:55.821Z,7.17
2018-09-17T02:44:24.973Z,7.87
2018-09-17T02:46:53.286Z,7.10
2018-09-17T02:49:21.611Z,7.27
2018-09-17T02:51:49.990Z,7.27
2018-09-17T02:54:18.396Z,6.87
2018-09-17T02:56:46.824Z,6.83
2018-09-17T02:59:15.172Z,6.70
2018-09-17T03:01:43.561Z,7.47
2018-09-17T03:04:11.883Z,6.77
2018-09-17T03:06:40.181Z,7.07
2018-09-17T03:09:09.270Z,7.30
2018-09-17T03:11:37.611Z,7.70
2018-09-17T03:14:06.139Z,7.93
2018-09-17T03:16:39.226Z,8.57
2018-09-17T03:19:07.718Z,9.00
2018-09-17T03:21:36.040Z,8.33
2018-09-17T03:24:04.378Z,8.80
2018-09-17T03:26:32.649Z,7.63
2018-09-17T03:29:00.991Z,7.80
2018-09-17T03:31:29.284Z,6.60
2018-09-17T03:33:57.622Z,7.37
2018-09-17T03:36:25.983Z,7.07
2018-09-17T03:38:54.431Z,7.20
2018-09-17T03:41:22.868Z,6.73
2018-09-17T03:43:52.237Z,6.73
2018-09-17T03:46:20.651Z,7.60
2018-09-17T03:48:49.162Z,8.43
2018-09-17T03:51:17.903Z,8.13
2018-09-17T03:53:46.699Z,8.33
2018-09-17T03:56:15.392Z,8.60
2018-09-17T03:58:43.747Z,8.67
2018-09-17T04:01:12.363Z,8.60
2018-09-17T04:03:41.045Z,8.77
2018-09-17T04:06:09.421Z,7.73
2018-09-17T04:08:37.740Z,8.43
2018-09-17T04:11:07.125Z,8.40
2018-09-17T04:13:35.389Z,7.73
2018-09-17T04:16:03.731Z,8.40
2018-09-17T04:18:32.047Z,8.33
2018-09-17T04:21:00.337Z,8.40
2018-09-17T04:23:32.656Z,10.77
2018-09-17T04:26:01.077Z,10.53
2018-09-17T04:28:29.403Z,9.87
2018-09-17T04:30:58.118Z,9.73
2018-09-17T04:33:27.350Z,8.90
2018-09-17T04:35:55.787Z,8.70
2018-09-17T04:38:24.139Z,9.00
2018-09-17T04:40:52.470Z,9.03
2018-09-17T04:43:20.814Z,9.43
2018-09-17T04:45:49.138Z,7.77
2018-09-17T04:48:17.599Z,7.53
2018-09-17T04:50:45.921Z,8.20
2018-09-17T04:53:14.257Z,6.80
2018-09-17T04:55:42.579Z,6.83
2018-09-17T04:58:10.901Z,6.90
2018-09-17T05:00:39.232Z,6.73
2018-09-17T05:03:07.622Z,8.37
2018-09-17T05:05:36.016Z,7.27
2018-09-17T05:08:04.315Z,6.83
2018-09-17T05:10:32.654Z,7.33
2018-09-17T05:13:01.216Z,7.30
2018-09-17T05:15:29.484Z,8.00
2018-09-17T05:17:57.809Z,7.70
2018-09-17T05:20:26.161Z,7.70
2018-09-17T05:22:54.754Z,8.20
2018-09-17T05:25:23.229Z,7.43
2018-09-17T05:27:51.552Z,7.67
2018-09-17T05:30:19.899Z,7.87
2018-09-17T05:32:48.186Z,7.63
2018-09-17T05:35:16.513Z,6.50
2018-09-17T05:37:44.883Z,6.67
2018-09-17T05:40:13.375Z,6.90
2018-09-17T05:42:41.748Z,7.37
2018-09-17T05:45:10.088Z,6.17
2018-09-17T05:47:38.387Z,7.40
2018-09-17T05:50:07.774Z,7.67
2018-09-17T05:52:36.138Z,8.60
2018-09-17T05:55:04.444Z,8.23
2018-09-17T05:57:32.853Z,6.80
2018-09-17T06:00:01.183Z,7.57
2018-09-17T06:02:29.533Z,8.17
2018-09-17T06:04:57.868Z,7.60
2018-09-17T06:07:26.242Z,7.77
2018-09-17T06:09:54.689Z,6.90
2018-09-17T06:12:23.094Z,6.70
2018-09-17T06:14:51.704Z,7.40
2018-09-17T06:17:20.011Z,6.63
2018-09-17T06:19:48.357Z,5.90
2018-09-17T06:22:16.689Z,5.50
2018-09-17T06:24:45.037Z,5.20
2018-09-17T06:27:13.459Z,6.10
2018-09-17T06:29:41.822Z,5.50
2018-09-17T06:32:10.167Z,6.17
2018-09-17T06:34:38.547Z,6.10
2018-09-17T06:37:06.975Z,6.23
2018-09-17T06:39:35.450Z,6.30
2018-09-17T06:42:03.811Z,6.90
2018-09-17T06:44:32.153Z,6.13
2018-09-17T06:47:00.471Z,5.60
2018-09-17T06:49:28.823Z,5.43
2018-09-17T06:51:57.180Z,6.33
2018-09-17T06:54:25.599Z,6.10
2018-09-17T06:56:53.972Z,6.27
2018-09-17T06:59:22.396Z,7.33
2018-09-17T07:01:50.799Z,7.40
2018-09-17T07:04:26.350Z,6.30
2018-09-17T07:06:54.999Z,6.03
2018-09-17T07:09:23.352Z,6.83
2018-09-17T07:11:51.655Z,6.03
2018-09-17T07:14:20.000Z,6.17
2018-09-17T07:16:48.362Z,5.53
2018-09-17T07:19:16.722Z,5.90
2018-09-17T07:21:45.124Z,6.17
2018-09-17T07:24:13.536Z,6.80
2018-09-17T07:26:41.922Z,6.93
2018-09-17T07:29:11.101Z,6.87
2018-09-17T07:31:39.748Z,6.63
2018-09-17T07:34:08.142Z,7.47
2018-09-17T07:36:36.557Z,7.20
2018-09-17T07:39:08.608Z,7.27
2018-09-17T07:41:37.075Z,7.43
2018-09-17T07:44:05.560Z,7.57
2018-09-17T07:46:33.853Z,8.30
2018-09-17T07:49:02.230Z,8.40
2018-09-17T07:51:30.549Z,7.80
2018-09-17T07:53:58.903Z,6.90
2018-09-17T07:56:27.555Z,6.57
2018-09-17T07:58:55.898Z,6.60
2018-09-17T08:01:24.199Z,6.50
2018-09-17T08:03:52.521Z,7.13
2018-09-17T08:06:20.838Z,6.80
2018-09-17T08:08:49.163Z,6.47
2018-09-17T08:11:17.501Z,6.93
2018-09-17T08:13:45.833Z,6.63
2018-09-17T08:16:14.158Z,6.47
2018-09-17T08:18:42.490Z,6.77
2018-09-17T08:21:10.844Z,6.57
2018-09-17T08:23:39.234Z,5.77
2018-09-17T08:26:08.289Z,6.93
2018-09-17T08:28:36.726Z,6.40
2018-09-17T08:31:05.266Z,5.90
2018-09-17T08:33:33.668Z,5.80
2018-09-17T08:36:02.009Z,6.10
2018-09-17T08:38:30.345Z,6.00
2018-09-17T08:40:58.654Z,5.70
2018-09-17T08:43:27.287Z,5.90
2018-09-17T08:45:55.619Z,5.90
2018-09-17T08:48:24.259Z,5.93
2018-09-17T08:50:52.570Z,5.70
2018-09-17T08:53:20.918Z,5.27
2018-09-17T08:55:54.639Z,5.37
2018-09-17T08:58:30.119Z,5.57
2018-09-17T09:01:01.408Z,4.90
2018-09-17T09:03:34.006Z,4.33
2018-09-17T09:06:08.412Z,4.33
2018-09-17T09:08:36.797Z,4.53
2018-09-17T09:11:10.509Z,4.17
2018-09-17T09:13:44.335Z,4.40
2018-09-17T09:16:12.937Z,4.73
2018-09-17T09:18:41.326Z,4.93
2018-09-17T09:21:09.687Z,4.40
2018-09-17T09:23:38.018Z,4.43
2018-09-17T09:26:07.194Z,4.30
2018-09-17T09:28:35.546Z,4.77
2018-09-17T09:31:03.908Z,4.43
2018-09-17T09:33:32.237Z,3.47
2018-09-17T09:36:01.187Z,4.63
2018-09-17T09:38:29.557Z,4.30
2018-09-17T09:40:57.940Z,3.90
2018-09-17T09:43:26.332Z,5.13
2018-09-17T09:45:54.873Z,4.70
2018-09-17T09:48:23.486Z,4.30
2018-09-17T09:50:51.849Z,4.10
2018-09-17T09:53:20.236Z,4.80
2018-09-17T09:55:48.591Z,4.60
2018-09-17T09:58:17.172Z,4.50
2018-09-17T10:00:50.930Z,4.60
2018-09-17T10:03:24.562Z,4.50
2018-09-17T10:05:52.897Z,5.00
2018-09-17T10:08:21.271Z,4.67
2018-09-17T10:10:54.953Z,4.43
2018-09-17T10:13:28.692Z,4.30
2018-09-17T10:15:57.901Z,4.80
2018-09-17T10:18:31.527Z,4.37
2018-09-17T10:21:00.037Z,4.23
2018-09-17T10:23:28.441Z,3.70
2018-09-17T10:25:56.813Z,3.60
2018-09-17T10:28:25.791Z,3.40
2018-09-17T10:30:54.139Z,3.73
2018-09-17T10:33:22.452Z,4.07
2018-09-17T10:35:50.812Z,3.40
2018-09-17T10:38:19.339Z,3.53
2018-09-17T10:40:47.703Z,3.37
2018-09-17T10:43:16.041Z,3.60
2018-09-17T10:45:44.337Z,3.70
2018-09-17T10:48:12.654Z,3.30
2018-09-17T10:50:41.037Z,3.37
2018-09-17T10:53:09.364Z,3.10
2018-09-17T10:55:37.714Z,4.00
2018-09-17T10:58:06.077Z,3.20
2018-09-17T11:00:34.598Z,2.70
2018-09-17T11:03:02.952Z,2.90
2018-09-17T11:05:31.325Z,2.90
2018-09-17T11:07:59.673Z,2.70
2018-09-17T11:10:28.005Z,2.70
2018-09-17T11:12:56.589Z,3.00
2018-09-17T11:15:29.961Z,2.60
2018-09-17T11:17:58.278Z,2.70
2018-09-17T11:20:26.618Z,2.90
2018-09-17T11:22:55.007Z,3.20
2018-09-17T11:25:23.422Z,3.20
2018-09-17T11:27:51.780Z,3.20
2018-09-17T11:30:20.154Z,3.60
2018-09-17T11:32:49.199Z,3.50
2018-09-17T11:35:17.551Z,3.60
2018-09-17T11:37:46.343Z,3.40
2018-09-17T11:40:14.752Z,3.60
2018-09-17T11:42:43.100Z,3.50
2018-09-17T11:45:11.560Z,3.50
2018-09-17T11:47:39.936Z,3.23
2018-09-17T11:50:08.454Z,3.70
2018-09-17T11:52:37.148Z,3.27
2018-09-17T11:55:05.823Z,2.90
2018-09-17T11:57:34.230Z,3.60
2018-09-17T12:00:02.625Z,3.70
2018-09-17T12:02:35.256Z,3.57
2018-09-17T12:05:06.199Z,3.20
2018-09-17T12:07:39.944Z,3.87
2018-09-17T12:10:08.719Z,3.30
2018-09-17T12:12:37.722Z,3.60
2018-09-17T12:15:06.867Z,3.20
2018-09-17T12:17:35.716Z,3.30
2018-09-17T12:20:04.058Z,4.30
2018-09-17T12:22:32.422Z,3.80
2018-09-17T12:25:00.776Z,3.40
2018-09-17T12:27:29.103Z,2.93
2018-09-17T12:29:57.447Z,3.07
2018-09-17T12:32:25.808Z,3.77
2018-09-17T12:34:54.153Z,3.40
2018-09-17T12:37:22.491Z,3.37
2018-09-17T12:39:50.880Z,3.03
2018-09-17T12:42:19.211Z,2.87
2018-09-17T12:44:47.659Z,3.50
2018-09-17T12:47:16.001Z,3.77
2018-09-17T12:49:44.316Z,3.27
2018-09-17T12:52:12.692Z,3.10
2018-09-17T12:54:41.027Z,2.63
2018-09-17T12:57:09.429Z,3.33
2018-09-17T12:59:37.720Z,3.10
2018-09-17T13:02:06.100Z,4.00
2018-09-17T13:04:34.600Z,3.00
2018-09-17T13:07:02.974Z,3.20
2018-09-17T13:09:31.326Z,2.70
2018-09-17T13:11:59.712Z,2.70
2018-09-17T13:14:28.088Z,2.73
2018-09-17T13:16:56.461Z,2.87
2018-09-17T13:19:24.826Z,3.10
2018-09-17T13:21:53.241Z,2.93
2018-09-17T13:24:21.627Z,3.23
2018-09-17T13:26:49.966Z,3.30
2018-09-17T13:29:18.328Z,2.90
2018-09-17T13:31:46.731Z,2.90
2018-09-17T13:34:15.070Z,3.47
2018-09-17T13:36:43.475Z,2.80
2018-09-17T13:39:11.846Z,3.70
2018-09-17T13:41:40.226Z,3.27
2018-09-17T13:44:08.726Z,3.00
2018-09-17T13:46:37.088Z,4.03
2018-09-17T13:49:05.722Z,2.67
2018-09-17T13:51:34.058Z,3.20
2018-09-17T13:54:02.444Z,2.70
2018-09-17T13:56:30.859Z,3.30
2018-09-17T13:58:59.313Z,2.73
2018-09-17T14:01:27.673Z,2.53
2018-09-17T14:03:56.021Z,2.83
2018-09-17T14:06:24.515Z,2.80
2018-09-17T14:08:52.841Z,2.63
2018-09-17T14:11:21.215Z,2.80
2018-09-17T14:13:49.569Z,2.63
2018-09-17T14:16:23.416Z,2.60
2018-09-17T14:18:51.743Z,2.90
2018-09-17T14:21:20.066Z,2.57
2018-09-17T14:23:48.435Z,2.63
2018-09-17T14:26:16.835Z,2.77
2018-09-17T14:28:45.157Z,2.80
2018-09-17T14:31:13.469Z,2.90
2018-09-17T14:33:41.828Z,2.57
2018-09-17T14:36:10.172Z,2.53
2018-09-17T14:38:38.533Z,2.90
2018-09-17T14:41:06.905Z,2.50
2018-09-17T14:43:35.551Z,2.50
2018-09-17T14:46:03.911Z,2.63
2018-09-17T14:48:32.273Z,2.67
2018-09-17T14:51:00.627Z,2.63
2018-09-17T14:53:29.108Z,2.93
2018-09-17T14:55:57.402Z,2.93
2018-09-17T14:58:25.894Z,2.70
2018-09-17T15:00:54.175Z,2.77
2018-09-17T15:03:22.694Z,2.90
2018-09-17T15:05:51.050Z,3.10
2018-09-17T15:08:19.496Z,2.97
2018-09-17T15:10:47.790Z,3.10
2018-09-17T15:13:16.229Z,3.17
2018-09-17T15:15:49.842Z,2.83
2018-09-17T15:18:18.184Z,3.00
2018-09-17T15:20:46.567Z,2.57
2018-09-17T15:23:14.952Z,3.23
2018-09-17T15:25:43.329Z,2.73
2018-09-17T15:28:11.774Z,2.97
2018-09-17T15:30:40.144Z,2.90
2018-09-17T15:33:08.600Z,3.10
2018-09-17T15:35:36.961Z,2.77
2018-09-17T15:38:05.397Z,2.63
2018-09-17T15:40:33.931Z,2.87
2018-09-17T15:43:02.667Z,2.80
2018-09-17T15:45:31.328Z,2.93
2018-09-17T15:47:59.888Z,2.67
2018-09-17T15:50:28.281Z,2.70
2018-09-17T15:52:56.641Z,2.87
2018-09-17T15:55:25.121Z,2.90
2018-09-17T15:57:53.605Z,2.87
2018-09-17T16:00:21.934Z,2.90
2018-09-17T16:02:50.534Z,3.17
2018-09-17T16:05:19.164Z,3.17
2018-09-17T16:07:47.544Z,2.77
2018-09-17T16:10:16.077Z,2.90
2018-09-17T16:12:44.505Z,3.23
2018-09-17T16:15:12.923Z,3.10
2018-09-17T16:17:41.325Z,3.10
2018-09-17T16:20:09.776Z,3.10
2018-09-17T16:22:38.341Z,3.30
2018-09-17T16:25:06.990Z,2.80
2018-09-17T16:27:35.422Z,3.07
2018-09-17T16:30:03.965Z,2.80
2018-09-17T16:32:32.511Z,2.60
2018-09-17T16:35:00.968Z,2.80
2018-09-17T16:37:29.344Z,3.30
2018-09-17T16:39:57.922Z,3.50
2018-09-17T16:42:26.379Z,3.10
2018-09-17T16:44:54.829Z,3.50
2018-09-17T16:47:23.458Z,3.07
2018-09-17T16:49:51.909Z,2.80
2018-09-17T16:52:20.378Z,3.50
2018-09-17T16:54:48.761Z,3.20
2018-09-17T16:57:17.163Z,3.47
2018-09-17T16:59:45.555Z,3.17
2018-09-17T17:02:14.064Z,3.37
2018-09-17T17:04:42.521Z,3.50
2018-09-17T17:07:11.058Z,3.47
2018-09-17T17:09:40.048Z,3.40
2018-09-17T17:12:08.490Z,3.23
2018-09-17T17:14:36.908Z,3.37
2018-09-17T17:17:05.412Z,3.00
2018-09-17T17:19:36.752Z,3.10
2018-09-17T17:22:05.135Z,3.23
2018-09-17T17:24:33.651Z,2.90
2018-09-17T17:27:02.103Z,2.90
2018-09-17T17:29:30.770Z,2.80
2018-09-17T17:31:59.409Z,3.80
2018-09-17T17:34:27.851Z,2.80
2018-09-17T17:36:56.250Z,4.30
2018-09-17T17:39:24.831Z,4.00
2018-09-17T17:41:53.876Z,4.20
2018-09-17T17:44:22.323Z,3.43
2018-09-17T17:46:50.738Z,3.73
2018-09-17T17:49:20.091Z,3.30
2018-09-17T17:51:48.921Z,3.30
2018-09-17T17:54:17.332Z,3.00
2018-09-17T17:56:45.739Z,3.00
2018-09-17T17:59:15.001Z,3.03
2018-09-17T18:01:43.513Z,3.40
2018-09-17T18:04:11.994Z,3.47
2018-09-17T18:06:40.479Z,3.70
2018-09-17T18:09:10.224Z,3.60
2018-09-17T18:11:38.975Z,3.87
2018-09-17T18:14:07.729Z,3.60
2018-09-17T18:16:36.208Z,3.70
2018-09-17T18:19:04.626Z,4.30
2018-09-17T18:21:33.034Z,4.10
2018-09-17T18:24:01.443Z,4.47
2018-09-17T18:26:30.057Z,3.93
2018-09-17T18:28:58.456Z,4.40
2018-09-17T18:31:26.887Z,4.40
2018-09-17T18:33:55.552Z,4.70
2018-09-17T18:36:24.036Z,5.10
2018-09-17T18:38:52.474Z,4.30
2018-09-17T18:41:20.874Z,4.90
2018-09-17T18:43:49.311Z,4.60
2018-09-17T18:46:17.790Z,4.27
2018-09-17T18:48:46.290Z,4.40
2018-09-17T18:51:14.786Z,4.73
2018-09-17T18:53:43.184Z,4.57
2018-09-17T18:56:11.812Z,4.63
2018-09-17T18:58:40.233Z,4.23
2018-09-17T19:01:08.728Z,3.73
2018-09-17T19:03:37.201Z,4.77
2018-09-17T19:06:05.839Z,5.07
2018-09-17T19:08:34.194Z,4.37
2018-09-17T19:11:02.663Z,4.40
2018-09-17T19:13:31.085Z,4.90
2018-09-17T19:15:59.868Z,4.20
2018-09-17T19:18:28.283Z,4.40
2018-09-17T19:20:57.059Z,4.50
2018-09-17T19:23:30.605Z,4.70
2018-09-17T19:25:59.013Z,4.50
2018-09-17T19:28:32.528Z,4.37
2018-09-17T19:31:00.921Z,4.07
2018-09-17T19:33:29.298Z,4.70
2018-09-17T19:35:57.734Z,4.40
2018-09-17T19:38:31.235Z,4.60
2018-09-17T19:40:59.654Z,4.13
2018-09-17T19:43:28.027Z,4.20
2018-09-17T19:46:01.928Z,4.13
2018-09-17T19:48:30.342Z,4.13
2018-09-17T19:51:04.011Z,4.90
2018-09-17T19:53:32.363Z,4.50
2018-09-17T19:56:00.837Z,4.80
2018-09-17T19:58:34.974Z,4.70
2018-09-17T20:01:03.420Z,4.73
2018-09-17T20:03:31.820Z,4.40
2018-09-17T20:06:05.541Z,4.60
2018-09-17T20:08:33.894Z,4.53
2018-09-17T20:11:02.249Z,4.43
2018-09-17T20:13:30.671Z,4.27
2018-09-17T20:16:00.808Z,5.23
2018-09-17T20:18:29.725Z,4.90
2018-09-17T20:20:58.249Z,4.97
2018-09-17T20:23:26.687Z,4.80
2018-09-17T20:25:55.342Z,3.87
2018-09-17T20:28:23.865Z,4.10
2018-09-17T20:30:52.438Z,4.83
2018-09-17T20:33:22.193Z,5.53
2018-09-17T20:35:50.631Z,4.17
2018-09-17T20:38:19.136Z,4.77
2018-09-17T20:40:47.403Z,4.80
2018-09-17T20:43:15.777Z,4.93
2018-09-17T20:45:44.137Z,5.57
2018-09-17T20:48:12.472Z,6.73
2018-09-17T20:50:40.990Z,4.73
2018-09-17T20:53:09.641Z,5.50
2018-09-17T20:55:38.078Z,6.17
2018-09-17T20:58:06.381Z,4.60
2018-09-17T21:00:34.819Z,5.40
2018-09-17T21:03:03.193Z,5.90
2018-09-17T21:05:31.787Z,12.33
2018-09-17T21:08:00.158Z,6.57
2018-09-17T21:10:28.556Z,7.33
2018-09-17T21:12:56.939Z,5.80
2018-09-17T21:15:25.304Z,7.00
2018-09-17T21:17:53.773Z,6.20
2018-09-17T21:20:22.133Z,6.50
2018-09-17T21:22:50.478Z,5.43
2018-09-17T21:25:18.893Z,5.40
2018-09-17T21:27:47.288Z,5.53
2018-09-17T21:30:15.737Z,6.30
2018-09-17T21:32:44.083Z,6.10
2018-09-17T21:35:12.496Z,5.60
2018-09-17T21:37:40.798Z,6.73
2018-09-17T21:40:09.210Z,6.70
2018-09-17T21:42:37.596Z,6.20
2018-09-17T21:45:07.813Z,5.90
2018-09-17T21:47:37.069Z,7.27
2018-09-17T21:50:05.567Z,6.77
2018-09-17T21:52:34.032Z,6.00
2018-09-17T21:55:02.269Z,6.57
2018-09-17T21:57:30.624Z,6.63
2018-09-17T21:59:58.984Z,5.87
2018-09-17T22:02:27.299Z,6.43
2018-09-17T22:04:55.691Z,6.13
2018-09-17T22:07:24.893Z,5.67
2018-09-17T22:09:53.326Z,6.67
2018-09-17T22:12:22.000Z,5.90
2018-09-17T22:14:50.335Z,6.07
2018-09-17T22:17:18.706Z,6.07
2018-09-17T22:19:47.074Z,5.87
2018-09-17T22:22:15.447Z,6.10
2018-09-17T22:24:43.836Z,7.30
2018-09-17T22:27:12.216Z,7.43
2018-09-17T22:29:40.607Z,5.90
2018-09-17T22:32:08.955Z,6.10
2018-09-17T22:34:37.282Z,6.30
2018-09-17T22:37:05.629Z,6.37
2018-09-17T22:39:34.012Z,6.03
2018-09-17T22:42:02.404Z,6.30
2018-09-17T22:44:30.894Z,6.00
2018-09-17T22:46:59.271Z,6.80
2018-09-17T22:49:27.855Z,6.83
2018-09-17T22:51:56.433Z,5.63
2018-09-17T22:54:24.920Z,6.77
2018-09-17T22:56:53.198Z,6.30
2018-09-17T22:59:21.582Z,6.67
2018-09-17T23:01:49.924Z,5.90
2018-09-17T23:04:18.274Z,6.70
2018-09-17T23:06:46.651Z,6.77
2018-09-17T23:09:15.050Z,7.80
2018-09-17T23:11:43.363Z,7.00
2018-09-17T23:14:11.714Z,7.30
2018-09-17T23:16:40.039Z,6.30
2018-09-17T23:19:08.430Z,6.03
2018-09-17T23:21:36.783Z,5.90
2018-09-17T23:24:05.077Z,6.10
2018-09-17T23:26:33.405Z,6.67
2018-09-17T23:29:01.695Z,6.23
2018-09-17T23:31:30.052Z,6.30
2018-09-17T23:33:58.355Z,6.03
2018-09-17T23:36:27.068Z,7.30
2018-09-17T23:38:55.439Z,6.77
2018-09-17T23:41:24.016Z,7.10
2018-09-17T23:43:52.416Z,7.40
2018-09-17T23:46:20.715Z,6.80
2018-09-17T23:48:49.075Z,6.40
2018-09-17T23:51:17.513Z,6.57
2018-09-17T23:53:45.906Z,6.70
2018-09-17T23:56:14.257Z,6.13
2018-09-17T23:58:42.585Z,6.80
